Time;durP1;ratioP1;P1;durP2;ratioP2;P2;SDS_P1;SDS_P2;PMS_P1;PMS_P2;Temp;Humidity;BMP_temperature;BMP_pressure;BME280_temperature;BME280_humidity;BME280_pressure;Samples;Min_cycle;Max_cycle;Signal;HPM_P1;HPM_P2
2024/03/18 00:02:10;;;;;;;15.33;13.23;;;13.10;99.90;;;;;;5074148;28;20208;-86
2024/03/18 00:04:35;;;;;;;14.23;12.73;;;13.20;99.90;;;;;;5073810;28;20640;-85
2024/03/18 00:07:02;;;;;;;15.07;13.47;;;13.00;99.90;;;;;;5074923;28;20183;-86
2024/03/18 00:09:28;;;;;;;15.23;13.73;;;12.90;99.90;;;;;;5075145;28;20222;-86
2024/03/18 00:11:53;;;;;;;14.70;13.17;;;12.90;99.90;;;;;;5074052;28;20595;-86
2024/03/18 00:14:19;;;;;;;15.43;13.93;;;12.80;99.90;;;;;;5075340;28;20724;-86
2024/03/18 00:16:44;;;;;;;16.17;14.57;;;12.80;99.90;;;;;;5074334;28;20183;-85
2024/03/18 00:19:10;;;;;;;15.60;13.80;;;12.80;99.90;;;;;;5072845;28;20628;-86
2024/03/18 00:21:38;;;;;;;15.60;13.90;;;13.00;99.90;;;;;;5074304;28;20759;-85
2024/03/18 00:24:04;;;;;;;17.83;13.83;;;12.80;99.90;;;;;;5073808;28;20190;-86
2024/03/18 00:26:30;;;;;;;15.73;13.93;;;12.80;99.90;;;;;;5073861;28;20202;-86
2024/03/18 00:28:55;;;;;;;15.83;13.80;;;12.90;99.90;;;;;;5074358;28;20967;-86
2024/03/18 00:31:21;;;;;;;15.60;13.73;;;12.90;99.90;;;;;;5072637;28;20646;-84
2024/03/18 00:33:47;;;;;;;15.17;13.63;;;12.80;99.90;;;;;;5072793;28;20175;-86
2024/03/18 00:36:13;;;;;;;14.57;13.10;;;12.70;99.90;;;;;;5074123;28;20174;-86
2024/03/18 00:38:38;;;;;;;14.27;12.77;;;12.70;99.90;;;;;;5073512;28;20639;-86
2024/03/18 00:43:48;;;;;;;14.97;13.37;;;12.70;99.90;;;;;;5074610;28;20229;-86
2024/03/18 00:46:14;;;;;;;14.63;13.23;;;12.70;99.90;;;;;;5075132;28;20168;-85
2024/03/18 00:48:40;;;;;;;13.90;12.50;;;12.70;99.90;;;;;;5073291;28;20172;-86
2024/03/18 00:51:05;;;;;;;14.10;12.23;;;12.70;99.90;;;;;;5072360;28;20658;-86
2024/03/18 00:53:32;;;;;;;13.77;11.60;;;12.70;99.90;;;;;;5073366;28;20622;-85
2024/03/18 00:55:58;;;;;;;13.03;11.73;;;12.70;99.90;;;;;;5072578;28;20217;-86
2024/03/18 00:58:24;;;;;;;12.83;11.47;;;12.70;99.90;;;;;;5071700;28;20274;-86
2024/03/18 01:00:50;;;;;;;13.17;11.87;;;12.70;99.90;;;;;;5073272;28;20254;-85
2024/03/18 01:03:16;;;;;;;12.73;11.43;;;12.70;99.90;;;;;;5072776;28;20226;-85
2024/03/18 01:05:41;;;;;;;12.83;11.53;;;12.70;99.90;;;;;;5073023;28;20188;-87
2024/03/18 01:08:07;;;;;;;13.57;12.13;;;12.70;99.90;;;;;;5073247;28;20176;-85
2024/03/18 01:10:33;;;;;;;13.47;12.07;;;12.70;99.90;;;;;;5073164;28;20180;-86
2024/03/18 01:12:59;;;;;;;13.97;12.57;;;12.70;99.90;;;;;;5072093;28;20231;-86
2024/03/18 01:15:25;;;;;;;14.03;12.63;;;12.70;99.90;;;;;;5074059;28;20605;-83
2024/03/18 01:17:51;;;;;;;14.87;13.37;;;12.60;99.90;;;;;;5073066;28;20209;-84
2024/03/18 01:20:19;;;;;;;15.40;13.80;;;12.60;99.90;;;;;;5074199;28;20180;-83
2024/03/18 01:22:48;;;;;;;14.70;13.20;;;12.60;99.90;;;;;;5074110;28;20268;-83
2024/03/18 01:25:15;;;;;;;15.17;13.67;;;12.50;99.90;;;;;;5075145;28;20235;-85
2024/03/18 01:27:41;;;;;;;15.83;14.33;;;12.50;99.90;;;;;;5072296;28;20555;-85
2024/03/18 01:30:11;;;;;;;15.77;14.10;;;12.50;99.90;;;;;;5070758;28;20267;-85
2024/03/18 01:32:40;;;;;;;16.60;14.80;;;12.50;99.90;;;;;;5074059;28;20168;-86
2024/03/18 01:35:07;;;;;;;14.87;13.50;;;12.50;99.90;;;;;;5072790;28;20548;-85
2024/03/18 01:37:35;;;;;;;16.17;14.57;;;12.50;99.90;;;;;;5072211;28;20176;-85
2024/03/18 01:40:01;;;;;;;16.30;14.07;;;12.50;99.90;;;;;;5071193;28;20630;-85
2024/03/18 01:42:26;;;;;;;15.50;13.83;;;12.50;99.90;;;;;;5070978;28;20233;-85
2024/03/18 01:44:54;;;;;;;15.93;14.33;;;12.50;99.90;;;;;;5070113;28;20187;-86
2024/03/18 01:47:21;;;;;;;16.30;14.60;;;12.50;99.90;;;;;;5073129;28;20659;-86
2024/03/18 01:49:48;;;;;;;16.43;14.73;;;12.50;99.90;;;;;;5071861;28;20245;-86
2024/03/18 01:52:15;;;;;;;16.40;14.63;;;12.60;99.90;;;;;;5071206;28;20217;-86
2024/03/18 01:54:42;;;;;;;16.83;15.00;;;12.60;99.90;;;;;;5071815;28;20176;-86
2024/03/18 01:57:09;;;;;;;16.87;15.17;;;12.60;99.90;;;;;;5071912;28;20250;-87
2024/03/18 01:59:35;;;;;;;16.37;14.77;;;12.60;99.90;;;;;;5071793;28;20179;-86
2024/03/18 02:02:02;;;;;;;16.87;15.17;;;12.60;99.90;;;;;;5070944;28;20218;-84
2024/03/18 02:04:28;;;;;;;16.80;15.07;;;12.70;99.90;;;;;;5071258;28;20194;-86
2024/03/18 02:06:59;;;;;;;17.83;15.93;;;12.70;99.90;;;;;;5071841;28;20550;-87
2024/03/18 02:09:26;;;;;;;16.67;14.97;;;12.80;99.90;;;;;;5091479;28;20210;-86
2024/03/18 02:11:53;;;;;;;17.93;16.03;;;12.70;99.90;;;;;;5092706;28;20189;-85
2024/03/18 02:14:19;;;;;;;19.00;15.97;;;12.80;99.90;;;;;;5093813;28;20216;-85
2024/03/18 02:16:47;;;;;;;20.80;18.20;;;12.90;99.90;;;;;;5092830;28;20186;-87
2024/03/18 02:19:13;;;;;;;22.27;18.23;;;12.90;99.90;;;;;;5093447;28;20171;-85
2024/03/18 02:21:39;;;;;;;23.47;19.10;;;12.80;99.90;;;;;;5089952;28;20220;-87
2024/03/18 02:24:07;;;;;;;22.43;19.60;;;12.80;99.90;;;;;;5091287;28;20658;-85
2024/03/18 02:26:33;;;;;;;23.23;19.20;;;12.80;99.90;;;;;;5092130;28;20176;-87
2024/03/18 02:28:59;;;;;;;22.47;19.57;;;12.80;99.90;;;;;;5091079;28;20681;-86
2024/03/18 02:31:25;;;;;;;23.70;19.70;;;12.90;99.90;;;;;;5091945;28;20283;-86
2024/03/18 02:33:51;;;;;;;24.83;19.47;;;12.70;99.90;;;;;;5093094;28;20192;-86
2024/03/18 02:36:19;;;;;;;22.47;19.47;;;12.70;99.90;;;;;;5091740;28;20626;-85
2024/03/18 02:38:45;;;;;;;23.83;18.40;;;12.70;99.90;;;;;;5092789;28;20170;-85
2024/03/18 02:41:11;;;;;;;22.20;18.30;;;12.60;99.90;;;;;;5091839;28;20204;-86
2024/03/18 02:43:37;;;;;;;22.03;19.63;;;12.50;99.90;;;;;;5091258;28;20183;-86
2024/03/18 02:46:04;;;;;;;24.80;19.47;;;12.50;99.90;;;;;;5091648;28;20261;-88
2024/03/18 02:48:30;;;;;;;25.63;20.07;;;12.40;99.90;;;;;;5092264;28;20177;-85
2024/03/18 02:50:57;;;;;;;25.40;20.17;;;12.60;99.90;;;;;;5090585;28;20211;-86
2024/03/18 02:53:22;;;;;;;23.77;20.67;;;12.60;99.90;;;;;;5091877;28;20255;-87
2024/03/18 02:55:48;;;;;;;27.37;20.67;;;12.70;99.90;;;;;;5091981;28;20224;-86
2024/03/18 02:58:14;;;;;;;25.43;20.23;;;12.60;99.90;;;;;;5091052;28;20186;-86
2024/03/18 03:00:39;;;;;;;26.57;20.63;;;12.70;99.90;;;;;;5092245;28;20282;-85
2024/03/18 03:03:05;;;;;;;26.30;20.87;;;12.80;99.90;;;;;;5090559;28;20678;-86
2024/03/18 03:05:32;;;;;;;30.33;21.53;;;12.80;99.90;;;;;;5092110;28;20261;-84
2024/03/18 03:07:58;;;;;;;26.80;21.67;;;12.90;99.90;;;;;;5092169;28;20638;-85
2024/03/18 03:10:24;;;;;;;26.27;21.80;;;13.00;99.90;;;;;;5091670;28;20529;-85
2024/03/18 03:12:49;;;;;;;31.43;21.93;;;13.00;99.90;;;;;;5091166;28;20188;-85
2024/03/18 03:15:15;;;;;;;31.07;23.03;;;13.00;99.90;;;;;;5091698;28;20201;-86
2024/03/18 03:17:41;;;;;;;31.30;23.50;;;13.10;99.90;;;;;;5090095;28;20544;-86
2024/03/18 03:20:08;;;;;;;32.37;23.90;;;13.10;99.90;;;;;;5091368;28;20174;-84
2024/03/18 03:22:38;;;;;;;33.17;23.20;;;13.10;99.90;;;;;;5090182;28;20174;-87
2024/03/18 03:25:05;;;;;;;31.43;23.50;;;13.10;99.90;;;;;;5090715;28;20175;-85
2024/03/18 03:27:32;;;;;;;35.33;24.23;;;13.10;99.90;;;;;;5091635;28;20556;-86
2024/03/18 03:29:59;;;;;;;35.20;24.63;;;13.10;99.90;;;;;;5091325;28;20265;-85
2024/03/18 03:32:26;;;;;;;37.00;25.33;;;13.10;99.90;;;;;;5091422;28;20309;-86
2024/03/18 03:34:51;;;;;;;36.63;24.47;;;13.10;99.90;;;;;;5090994;28;20175;-86
2024/03/18 03:37:18;;;;;;;38.07;25.33;;;13.10;99.90;;;;;;5092369;28;20272;-85
2024/03/18 03:39:44;;;;;;;39.13;25.63;;;13.10;99.90;;;;;;5091955;28;20177;-86
2024/03/18 03:42:10;;;;;;;40.30;25.70;;;13.00;99.90;;;;;;5090263;28;20707;-86
2024/03/18 03:44:36;;;;;;;39.33;26.37;;;12.90;99.90;;;;;;5092507;28;20262;-85
2024/03/18 03:47:02;;;;;;;42.57;25.07;;;12.80;99.90;;;;;;5091375;28;20211;-87
2024/03/18 03:49:28;;;;;;;45.33;25.33;;;12.90;99.90;;;;;;5091150;28;20630;-86
2024/03/18 03:51:55;;;;;;;48.30;26.97;;;12.90;99.90;;;;;;5091506;28;20230;-85
2024/03/18 03:54:23;;;;;;;46.70;27.00;;;12.90;99.90;;;;;;5094174;28;20172;-85
2024/03/18 03:56:49;;;;;;;49.83;27.80;;;12.90;99.90;;;;;;5094548;28;20175;-85
2024/03/18 03:59:14;;;;;;;53.27;28.60;;;12.90;99.90;;;;;;5094639;28;20174;-85
2024/03/18 04:01:40;;;;;;;47.43;27.33;;;12.80;99.90;;;;;;5094590;28;20228;-84
2024/03/18 04:04:06;;;;;;;46.07;26.73;;;12.80;99.90;;;;;;5094085;28;20270;-88
2024/03/18 04:06:32;;;;;;;62.27;28.97;;;12.60;99.90;;;;;;5094644;28;20184;-86
2024/03/18 04:08:58;;;;;;;52.03;28.33;;;12.70;99.90;;;;;;5094078;28;20644;-85
2024/03/18 04:11:23;;;;;;;49.47;27.40;;;12.70;99.90;;;;;;5095481;28;20167;-86
2024/03/18 04:13:49;;;;;;;48.00;27.00;;;12.60;99.90;;;;;;5094090;28;20195;-86
2024/03/18 04:16:16;;;;;;;48.20;26.67;;;12.50;99.90;;;;;;5093408;28;20519;-85
2024/03/18 04:18:42;;;;;;;42.40;24.87;;;12.50;99.90;;;;;;5094686;28;20179;-85
2024/03/18 04:21:08;;;;;;;42.67;24.40;;;12.50;99.90;;;;;;5094358;28;20214;-84
2024/03/18 04:23:34;;;;;;;36.13;22.60;;;12.50;99.90;;;;;;5092499;28;20635;-85
2024/03/18 04:26:06;;;;;;;36.13;22.77;;;12.40;99.90;;;;;;5094417;28;20178;-85
2024/03/18 04:28:33;;;;;;;35.73;22.47;;;12.30;99.90;;;;;;5093966;28;20224;-87
2024/03/18 04:31:00;;;;;;;37.07;22.30;;;12.30;99.90;;;;;;5093959;28;20179;-86
2024/03/18 04:33:26;;;;;;;37.03;23.43;;;12.40;99.90;;;;;;5094268;28;20171;-84
2024/03/18 04:35:52;;;;;;;32.10;21.57;;;12.40;99.90;;;;;;5093364;28;20224;-86
2024/03/18 04:38:17;;;;;;;30.37;20.63;;;12.40;99.90;;;;;;5093661;28;20245;-86
2024/03/18 04:40:43;;;;;;;29.70;20.50;;;12.40;99.90;;;;;;5093020;28;20657;-86
2024/03/18 04:43:09;;;;;;;28.97;19.27;;;12.30;99.90;;;;;;5093452;28;20200;-86
2024/03/18 04:45:35;;;;;;;32.37;20.80;;;12.20;99.90;;;;;;5093762;28;20189;-85
2024/03/18 04:48:00;;;;;;;27.80;19.37;;;12.20;99.90;;;;;;5094993;28;20172;-85
2024/03/18 04:50:26;;;;;;;33.47;21.43;;;12.30;99.90;;;;;;5094218;28;20228;-86
2024/03/18 04:52:55;;;;;;;24.73;18.77;;;12.40;99.90;;;;;;5093554;28;20175;-86
2024/03/18 04:55:24;;;;;;;25.43;18.47;;;12.40;99.90;;;;;;5094081;28;20269;-86
2024/03/18 04:57:52;;;;;;;29.23;18.53;;;12.40;99.90;;;;;;5095418;28;20171;-85
2024/03/18 05:00:18;;;;;;;28.97;19.73;;;12.60;99.90;;;;;;5092591;28;20178;-86
2024/03/18 05:02:44;;;;;;;29.93;20.07;;;12.50;99.90;;;;;;5092478;28;20198;-85
2024/03/18 05:05:14;;;;;;;25.30;19.13;;;12.50;99.90;;;;;;5092972;28;20472;-86
2024/03/18 05:07:40;;;;;;;22.07;16.30;;;12.50;99.90;;;;;;5093230;28;20521;-85
2024/03/18 05:10:07;;;;;;;21.97;16.57;;;12.40;99.90;;;;;;5092791;28;20172;-86
2024/03/18 05:12:33;;;;;;;24.83;17.60;;;12.40;99.90;;;;;;5093183;28;20173;-86
2024/03/18 05:14:59;;;;;;;22.97;17.50;;;12.40;99.90;;;;;;5093331;28;20256;-86
2024/03/18 05:17:25;;;;;;;22.53;17.57;;;12.20;99.90;;;;;;5093841;28;20185;-86
2024/03/18 05:19:55;;;;;;;20.77;16.93;;;12.20;99.90;;;;;;5092868;28;20179;-86
2024/03/18 05:22:21;;;;;;;23.93;17.50;;;12.30;99.90;;;;;;5091914;28;20207;-86
2024/03/18 05:24:48;;;;;;;23.60;16.67;;;12.30;99.90;;;;;;5093482;28;20172;-85
2024/03/18 05:27:19;;;;;;;23.27;17.13;;;12.20;99.90;;;;;;5092586;28;20530;-87
2024/03/18 05:29:45;;;;;;;24.43;17.87;;;12.10;99.90;;;;;;5092010;28;20267;-86
2024/03/18 05:32:12;;;;;;;23.60;16.83;;;12.20;99.90;;;;;;5091971;28;20179;-86
2024/03/18 05:34:39;;;;;;;22.80;16.43;;;12.10;99.90;;;;;;5092532;28;20180;-86
2024/03/18 05:37:06;;;;;;;20.83;16.50;;;12.10;99.90;;;;;;5092354;28;20182;-85
2024/03/18 05:39:33;;;;;;;20.70;15.50;;;12.10;99.90;;;;;;5093193;28;20188;-85
2024/03/18 05:41:59;;;;;;;20.43;16.43;;;12.00;99.90;;;;;;5092736;28;20868;-85
2024/03/18 05:44:25;;;;;;;19.10;14.87;;;12.10;99.90;;;;;;5092362;28;20698;-86
2024/03/18 05:46:51;;;;;;;20.43;16.10;;;12.20;99.90;;;;;;5093048;28;20200;-85
2024/03/18 05:49:17;;;;;;;19.50;15.40;;;12.20;99.90;;;;;;5092930;28;20250;-86
2024/03/18 05:51:44;;;;;;;20.30;16.00;;;12.20;99.90;;;;;;5092946;28;20275;-86
2024/03/18 05:54:10;;;;;;;21.30;16.23;;;12.20;99.90;;;;;;5092957;28;20172;-87
2024/03/18 05:56:36;;;;;;;19.90;15.17;;;12.40;99.90;;;;;;5092111;28;20171;-85
2024/03/18 05:59:02;;;;;;;21.93;15.57;;;12.10;99.90;;;;;;5092380;28;20171;-87
2024/03/18 06:01:29;;;;;;;19.90;15.50;;;12.00;99.90;;;;;;5091387;28;20209;-86
2024/03/18 06:03:54;;;;;;;21.00;16.00;;;12.00;99.90;;;;;;5091865;28;20536;-84
2024/03/18 06:06:20;;;;;;;19.37;15.60;;;11.90;99.90;;;;;;5092503;28;20171;-87
2024/03/18 06:08:46;;;;;;;18.20;14.50;;;11.80;99.90;;;;;;5091270;28;20179;-86
2024/03/18 06:11:12;;;;;;;18.43;15.03;;;11.80;99.90;;;;;;5092036;28;20182;-86
2024/03/18 06:13:38;;;;;;;20.93;16.27;;;11.70;99.90;;;;;;5092133;28;20269;-87
2024/03/18 06:16:04;;;;;;;22.13;15.83;;;11.80;99.90;;;;;;5092192;28;20181;-86
2024/03/18 06:18:32;;;;;;;22.30;16.67;;;11.80;99.90;;;;;;5091804;28;20185;-84
2024/03/18 06:21:00;;;;;;;21.53;16.23;;;11.90;99.90;;;;;;5091438;28;20271;-87
2024/03/18 06:23:26;;;;;;;20.80;16.03;;;12.00;99.90;;;;;;5092478;28;20184;-86
2024/03/18 06:25:59;;;;;;;23.03;16.33;;;12.10;99.90;;;;;;5092816;28;20182;-86
2024/03/18 06:28:26;;;;;;;21.77;17.43;;;11.90;99.90;;;;;;5093287;28;20175;-85
2024/03/18 06:30:52;;;;;;;22.47;16.10;;;11.90;99.90;;;;;;5093266;28;20199;-87
2024/03/18 06:33:18;;;;;;;21.83;16.50;;;11.90;99.90;;;;;;5091893;28;20176;-86
2024/03/18 06:35:45;;;;;;;23.40;17.03;;;12.00;99.90;;;;;;5091676;28;20258;-86
2024/03/18 06:38:12;;;;;;;21.03;16.20;;;12.00;99.90;;;;;;5091266;28;20175;-87
2024/03/18 06:40:39;;;;;;;21.03;16.67;;;12.00;99.90;;;;;;5091534;28;20203;-85
2024/03/18 06:43:05;;;;;;;25.33;17.10;;;12.10;99.90;;;;;;5090941;28;20179;-86
2024/03/18 06:45:31;;;;;;;24.47;16.83;;;11.90;99.90;;;;;;5091754;28;20180;-85
2024/03/18 06:47:58;;;;;;;23.40;15.23;;;12.00;99.90;;;;;;5091297;28;20197;-84
2024/03/18 06:50:24;;;;;;;24.40;16.50;;;11.90;99.90;;;;;;5090333;28;20186;-85
2024/03/18 06:52:49;;;;;;;20.40;15.13;;;12.00;99.90;;;;;;5090694;28;20195;-86
2024/03/18 06:55:15;;;;;;;22.23;15.67;;;11.90;99.90;;;;;;5090816;28;20241;-86
2024/03/18 06:57:41;;;;;;;20.43;15.37;;;12.00;99.90;;;;;;5090225;28;20181;-85
2024/03/18 07:00:07;;;;;;;22.47;16.03;;;12.00;99.90;;;;;;5089903;28;20175;-84
2024/03/18 07:02:34;;;;;;;26.10;15.37;;;12.10;99.90;;;;;;5091957;28;20748;-84
2024/03/18 07:05:00;;;;;;;20.63;14.83;;;12.10;99.90;;;;;;5090677;28;20167;-85
2024/03/18 07:07:26;;;;;;;21.30;13.87;;;12.00;99.90;;;;;;5090534;28;20199;-84
2024/03/18 07:09:52;;;;;;;19.33;12.93;;;12.00;99.90;;;;;;5091416;28;20171;-84
2024/03/18 07:12:18;;;;;;;22.13;13.87;;;12.00;99.90;;;;;;5082391;28;20587;-86
2024/03/18 07:14:44;;;;;;;22.97;13.63;;;11.90;99.90;;;;;;5081280;28;20211;-86
2024/03/18 07:17:10;;;;;;;25.27;14.63;;;12.00;99.90;;;;;;5081030;28;20168;-85
2024/03/18 07:19:35;;;;;;;20.67;13.40;;;11.90;99.90;;;;;;5072924;28;20218;-85
2024/03/18 07:22:02;;;;;;;23.30;15.07;;;11.90;99.90;;;;;;5070728;28;20204;-87
2024/03/18 07:24:28;;;;;;;25.10;15.43;;;11.80;99.90;;;;;;5069473;28;20168;-83
2024/03/18 07:26:54;;;;;;;24.97;14.23;;;11.80;99.90;;;;;;5069666;28;20165;-83
2024/03/18 07:29:20;;;;;;;25.27;13.70;;;11.70;99.90;;;;;;5074411;28;20335;-86
2024/03/18 07:31:46;;;;;;;24.80;15.53;;;11.60;99.90;;;;;;5074933;28;20221;-84
2024/03/18 07:34:15;;;;;;;23.23;14.67;;;11.60;99.90;;;;;;5074633;28;20192;-86
2024/03/18 07:36:40;;;;;;;21.23;12.80;;;11.70;99.90;;;;;;5074066;28;20184;-85
2024/03/18 07:39:06;;;;;;;26.83;14.77;;;11.80;99.90;;;;;;5075123;28;20170;-87
2024/03/18 07:41:32;;;;;;;23.50;14.13;;;11.90;99.90;;;;;;5073541;28;20196;-84
2024/03/18 07:43:59;;;;;;;23.73;13.67;;;11.80;99.90;;;;;;5075022;28;20170;-85
2024/03/18 07:46:25;;;;;;;23.30;14.63;;;11.70;99.90;;;;;;5075163;28;20271;-85
2024/03/18 07:48:50;;;;;;;23.37;14.03;;;11.70;99.90;;;;;;5073801;28;20172;-83
2024/03/18 07:51:16;;;;;;;19.90;12.83;;;11.90;99.90;;;;;;5075015;28;20176;-83
2024/03/18 07:53:42;;;;;;;23.13;12.00;;;11.90;99.90;;;;;;5095692;28;20204;-85
2024/03/18 07:56:10;;;;;;;22.47;13.20;;;11.80;99.90;;;;;;5097670;28;20581;-87
2024/03/18 07:58:35;;;;;;;21.17;12.83;;;11.90;99.90;;;;;;5093297;28;20175;-86
2024/03/18 08:01:01;;;;;;;20.50;13.20;;;12.00;99.90;;;;;;5094664;28;20195;-87
2024/03/18 08:03:26;;;;;;;22.83;13.00;;;12.10;99.90;;;;;;5093306;28;20270;-87
2024/03/18 08:05:53;;;;;;;24.57;13.80;;;12.10;99.90;;;;;;5094275;28;20650;-88
2024/03/18 08:08:19;;;;;;;24.77;14.10;;;12.00;99.90;;;;;;5095428;28;20732;-87
2024/03/18 08:10:45;;;;;;;24.67;14.33;;;12.00;99.90;;;;;;5094835;28;20167;-87
2024/03/18 08:13:12;;;;;;;25.03;14.97;;;12.00;99.90;;;;;;5094222;28;20656;-87
2024/03/18 08:15:38;;;;;;;29.00;14.87;;;12.00;99.90;;;;;;5094601;28;20261;-88
2024/03/18 08:18:07;;;;;;;24.53;16.13;;;12.00;99.90;;;;;;5096331;28;20217;-87
2024/03/18 08:20:33;;;;;;;28.23;18.33;;;11.90;99.90;;;;;;5095307;28;20612;-88
2024/03/18 08:22:59;;;;;;;24.87;17.50;;;11.80;99.90;;;;;;5094898;28;20215;-88
2024/03/18 08:25:26;;;;;;;34.43;19.07;;;11.90;99.90;;;;;;5093907;28;20255;-87
2024/03/18 08:27:52;;;;;;;30.60;20.10;;;12.00;99.90;;;;;;5088906;28;20165;-87
2024/03/18 08:30:18;;;;;;;27.43;17.83;;;12.10;99.90;;;;;;5084836;28;20188;-89
2024/03/18 08:32:44;;;;;;;30.20;18.07;;;12.00;99.90;;;;;;5088306;28;20288;-87
2024/03/18 08:35:10;;;;;;;32.13;19.70;;;12.10;99.90;;;;;;5084519;28;20174;-87
2024/03/18 08:37:36;;;;;;;31.07;19.47;;;12.20;99.90;;;;;;5090551;28;20271;-87
2024/03/18 08:40:01;;;;;;;25.87;19.23;;;12.30;99.90;;;;;;5114151;28;20201;-88
2024/03/18 08:42:27;;;;;;;28.80;20.10;;;12.50;99.90;;;;;;5114736;28;20728;-87
2024/03/18 08:44:53;;;;;;;32.47;20.30;;;12.50;99.90;;;;;;5114172;28;20191;-87
2024/03/18 08:47:20;;;;;;;45.20;23.90;;;12.30;99.90;;;;;;5114739;28;20878;-87
2024/03/18 08:49:47;;;;;;;23.30;15.70;;;12.30;99.90;;;;;;5114828;28;20623;-87
2024/03/18 08:52:14;;;;;;;24.97;17.33;;;12.20;99.90;;;;;;5114965;28;20165;-86
2024/03/18 08:54:40;;;;;;;26.10;16.73;;;12.30;99.90;;;;;;5114148;28;20163;-87
2024/03/18 08:57:06;;;;;;;31.37;17.50;;;12.40;99.90;;;;;;5113823;28;20171;-86
2024/03/18 08:59:32;;;;;;;26.63;17.73;;;12.50;99.90;;;;;;5114096;28;20336;-87
2024/03/18 09:01:58;;;;;;;28.57;16.53;;;12.70;99.90;;;;;;5114077;28;20261;-87
2024/03/18 09:04:25;;;;;;;43.23;21.70;;;12.70;99.90;;;;;;5113987;28;20594;-87
2024/03/18 09:06:51;;;;;;;27.83;18.27;;;12.60;99.90;;;;;;5114392;28;20312;-86
2024/03/18 09:09:18;;;;;;;22.10;14.43;;;12.70;99.90;;;;;;5114585;28;20195;-86
2024/03/18 09:11:44;;;;;;;21.93;14.37;;;12.80;99.90;;;;;;5114128;28;20174;-87
2024/03/18 09:14:10;;;;;;;26.67;16.20;;;12.90;99.90;;;;;;5113267;28;20294;-88
2024/03/18 09:16:35;;;;;;;23.57;15.80;;;12.80;99.90;;;;;;5113059;28;20211;-87
2024/03/18 09:19:02;;;;;;;27.47;17.20;;;12.90;99.90;;;;;;5113571;28;20170;-87
2024/03/18 09:21:28;;;;;;;28.13;18.07;;;12.80;99.90;;;;;;5113347;28;20211;-87
2024/03/18 09:23:54;;;;;;;25.63;15.70;;;12.80;99.90;;;;;;5114036;28;20171;-88
2024/03/18 09:26:20;;;;;;;27.30;16.07;;;12.80;99.90;;;;;;5113737;28;20181;-87
2024/03/18 09:28:46;;;;;;;26.77;17.17;;;12.80;99.90;;;;;;5113682;28;20175;-87
2024/03/18 09:31:12;;;;;;;27.63;17.03;;;12.80;99.90;;;;;;5113411;28;20183;-87
2024/03/18 09:33:38;;;;;;;26.07;16.87;;;13.00;99.90;;;;;;5113388;28;20177;-88
2024/03/18 09:36:04;;;;;;;23.70;16.60;;;12.90;99.90;;;;;;5113770;28;20611;-87
2024/03/18 09:38:30;;;;;;;23.70;16.57;;;13.00;99.90;;;;;;5113950;28;20184;-87
2024/03/18 09:41:06;;;;;;;29.10;18.80;;;13.00;99.90;;;;;;5115290;28;20202;-85
2024/03/18 09:43:36;;;;;;;29.43;16.97;;;13.10;99.90;;;;;;5117613;28;20245;-88
2024/03/18 09:46:05;;;;;;;26.27;16.47;;;13.20;99.90;;;;;;5112946;28;20617;-87
2024/03/18 09:48:33;;;;;;;29.67;17.37;;;13.10;99.90;;;;;;5112788;28;20207;-86
2024/03/18 09:51:00;;;;;;;27.07;16.00;;;13.00;99.90;;;;;;5111892;28;20228;-88
2024/03/18 09:53:28;;;;;;;26.00;15.67;;;13.00;99.90;;;;;;5112200;28;20175;-87
2024/03/18 09:55:54;;;;;;;23.27;14.57;;;13.00;99.90;;;;;;5112980;28;20172;-87
2024/03/18 09:58:20;;;;;;;24.90;16.03;;;13.20;99.90;;;;;;5083120;28;20186;-86
2024/03/18 10:00:46;;;;;;;24.00;15.33;;;13.20;99.90;;;;;;5071703;28;20197;-87
2024/03/18 10:03:18;;;;;;;29.63;15.63;;;13.40;99.90;;;;;;5071983;28;20205;-87
2024/03/18 10:05:45;;;;;;;28.43;15.30;;;13.50;99.90;;;;;;5072341;28;20176;-87
2024/03/18 10:08:15;;;;;;;20.70;13.33;;;13.60;99.90;;;;;;5075965;28;20256;-88
2024/03/18 10:10:45;;;;;;;25.40;12.90;;;13.70;99.90;;;;;;5072587;28;20167;-87
2024/03/18 10:13:12;;;;;;;23.27;13.30;;;13.80;99.90;;;;;;5072192;28;20176;-87
2024/03/18 10:15:41;;;;;;;18.53;12.30;;;13.80;99.90;;;;;;5072252;28;20192;-87
2024/03/18 10:18:16;;;;;;;23.90;12.80;;;13.80;99.90;;;;;;5072031;28;20286;-87
2024/03/18 10:20:42;;;;;;;18.07;11.87;;;14.10;99.90;;;;;;5071528;28;20265;-87
2024/03/18 10:23:13;;;;;;;17.30;10.50;;;14.30;99.90;;;;;;5072111;28;20180;-87
2024/03/18 10:25:40;;;;;;;16.93;10.87;;;14.30;99.60;;;;;;5071936;28;20181;-86
2024/03/18 10:28:07;;;;;;;19.10;10.40;;;14.50;96.30;;;;;;5071224;28;20552;-86
2024/03/18 10:30:34;;;;;;;17.93;10.33;;;14.40;94.70;;;;;;5071228;28;20297;-87
2024/03/18 10:33:04;;;;;;;24.30;12.83;;;14.30;94.10;;;;;;5072535;28;20180;-86
2024/03/18 10:35:34;;;;;;;21.13;11.43;;;14.30;93.00;;;;;;5070314;28;20290;-87
2024/03/18 10:38:04;;;;;;;18.67;11.20;;;14.30;92.50;;;;;;5076436;28;20191;-87
2024/03/18 10:40:39;;;;;;;17.83;11.50;;;14.30;92.80;;;;;;5082923;28;20183;-87
2024/03/18 10:43:09;;;;;;;24.23;12.07;;;14.40;94.00;;;;;;5092215;28;20635;-87
2024/03/18 10:45:42;;;;;;;17.37;10.30;;;14.50;92.10;;;;;;5092150;28;20197;-86
2024/03/18 10:48:13;;;;;;;22.17;11.00;;;14.60;93.00;;;;;;5091538;28;20175;-86
2024/03/18 10:50:41;;;;;;;19.30;10.73;;;14.50;94.10;;;;;;5091276;28;20666;-88
2024/03/18 10:53:18;;;;;;;16.10;9.33;;;14.60;96.40;;;;;;5091955;28;20699;-86
2024/03/18 10:55:52;;;;;;;18.00;10.17;;;14.70;95.10;;;;;;5090863;28;20175;-87
2024/03/18 10:58:21;;;;;;;17.80;8.67;;;14.80;91.70;;;;;;5091102;28;20178;-84
2024/03/18 11:00:47;;;;;;;15.77;8.93;;;14.90;86.30;;;;;;5091516;28;20238;-87
2024/03/18 11:03:20;;;;;;;16.60;9.13;;;15.00;80.60;;;;;;5091305;28;20188;-86
2024/03/18 11:05:49;;;;;;;17.27;9.37;;;14.90;78.00;;;;;;5092131;28;20175;-87
2024/03/18 11:08:18;;;;;;;15.27;8.67;;;15.00;82.40;;;;;;5092054;28;20628;-87
2024/03/18 11:10:44;;;;;;;17.03;8.97;;;15.00;76.50;;;;;;5092208;28;20245;-86
2024/03/18 11:13:14;;;;;;;16.50;9.30;;;15.00;79.10;;;;;;5092093;28;20592;-86
2024/03/18 11:16:01;;;;;;;18.27;9.80;;;14.70;85.20;;;;;;5091327;28;20232;-86
2024/03/18 11:18:27;;;;;;;15.03;8.70;;;14.60;90.40;;;;;;5091001;28;20184;-88
2024/03/18 11:21:02;;;;;;;15.30;6.87;;;14.60;92.10;;;;;;5091480;28;20248;-87
2024/03/18 11:23:33;;;;;;;10.77;6.63;;;14.40;70.70;;;;;;5093063;28;20182;-87
2024/03/18 11:26:05;;;;;;;13.83;6.60;;;14.50;75.20;;;;;;5091330;28;20168;-86
2024/03/18 11:28:34;;;;;;;13.77;7.03;;;14.30;65.40;;;;;;5092121;28;20592;-86
2024/03/18 11:31:02;;;;;;;15.60;7.43;;;14.40;73.60;;;;;;5092186;28;20167;-87
2024/03/18 11:33:28;;;;;;;16.87;8.03;;;14.70;73.50;;;;;;5091362;28;20168;-87
2024/03/18 11:35:53;;;;;;;14.13;6.53;;;14.80;69.60;;;;;;5091483;28;20538;-86
2024/03/18 11:38:19;;;;;;;12.87;6.57;;;14.80;60.80;;;;;;5091339;28;20178;-89
2024/03/18 11:40:45;;;;;;;11.70;5.37;;;14.70;63.90;;;;;;5091715;28;20246;-87
2024/03/18 11:43:12;;;;;;;10.97;5.90;;;14.70;59.70;;;;;;5092265;28;20182;-86
2024/03/18 11:45:38;;;;;;;10.37;6.77;;;14.40;57.10;;;;;;5093313;28;20221;-87
2024/03/18 11:48:08;;;;;;;11.70;6.80;;;14.30;41.60;;;;;;5091122;28;20171;-89
2024/03/18 11:50:36;;;;;;;10.67;6.40;;;14.30;71.80;;;;;;5091751;28;20224;-88
2024/03/18 11:53:09;;;;;;;10.13;6.07;;;14.40;73.60;;;;;;5091157;28;20172;-87
2024/03/18 11:55:37;;;;;;;12.93;6.10;;;14.70;68.20;;;;;;5091143;28;20172;-87
2024/03/18 11:58:04;;;;;;;12.60;5.40;;;15.00;60.50;;;;;;5091810;28;20274;-88
2024/03/18 12:00:33;;;;;;;12.63;6.23;;;15.20;53.20;;;;;;5090988;28;20662;-88
2024/03/18 12:03:01;;;;;;;11.53;5.10;;;15.50;50.80;;;;;;5091843;28;20191;-86
2024/03/18 12:05:31;;;;;;;11.10;5.70;;;15.70;39.80;;;;;;5090952;28;20170;-86
2024/03/18 12:07:57;;;;;;;10.47;5.50;;;15.80;44.00;;;;;;5090741;28;20328;-87
2024/03/18 12:10:24;;;;;;;8.37;3.97;;;16.00;39.30;;;;;;5090591;28;20172;-87
2024/03/18 12:12:50;;;;;;;9.47;4.33;;;15.90;28.00;;;;;;5091387;28;20180;-87
2024/03/18 12:15:16;;;;;;;10.33;5.27;;;15.90;28.60;;;;;;5093645;28;20735;-87
2024/03/18 12:17:43;;;;;;;9.97;4.93;;;15.90;33.80;;;;;;5093836;28;20321;-86
2024/03/18 12:20:26;;;;;;;14.07;5.23;;;15.90;37.30;;;;;;5094567;28;20188;-86
2024/03/18 12:23:04;;;;;;;9.83;4.50;;;15.90;35.00;;;;;;5094582;28;20184;-86
2024/03/18 12:28:32;;;;;;;10.27;4.37;;;15.60;29.10;;;;;;5095887;28;20179;-88
2024/03/18 12:31:04;;;;;;;9.33;4.73;;;15.50;35.40;;;;;;5093924;28;20169;-87
2024/03/18 12:33:31;;;;;;;9.03;3.63;;;15.70;37.90;;;;;;5094583;28;20204;-87